createdAt,value
2022-09-30T00:01:35.444Z,87.92
2022-09-30T00:04:03.681Z,87.84
2022-09-30T00:06:33.047Z,87.84
2022-09-30T00:09:01.744Z,87.56
2022-09-30T00:11:32.780Z,87.92
2022-09-30T00:14:01.120Z,87.99
2022-09-30T00:16:34.207Z,87.78
2022-09-30T00:19:03.790Z,88.05
2022-09-30T00:21:34.149Z,88.09
2022-09-30T00:24:02.277Z,87.58
2022-09-30T00:26:30.639Z,87.79
2022-09-30T00:29:00.045Z,87.56
2022-09-30T00:31:32.785Z,87.79
2022-09-30T00:34:10.098Z,87.85
2022-09-30T00:36:41.728Z,87.88
2022-09-30T00:39:12.147Z,88.48
2022-09-30T00:41:39.960Z,88.14
2022-09-30T00:44:48.287Z,87.78
2022-09-30T00:47:38.349Z,87.99
2022-09-30T00:50:14.940Z,88.17
2022-09-30T00:52:43.802Z,88.29
2022-09-30T00:55:27.080Z,88.46
2022-09-30T00:57:56.169Z,88.21
2022-09-30T01:00:24.297Z,87.74
2022-09-30T01:02:54.548Z,87.96
2022-09-30T01:05:24.017Z,88.23
2022-09-30T01:07:52.583Z,87.74
2022-09-30T01:10:20.775Z,87.70
2022-09-30T01:12:48.714Z,87.77
2022-09-30T01:15:17.515Z,88.00
2022-09-30T01:17:55.187Z,87.88
2022-09-30T01:20:47.526Z,87.69
2022-09-30T01:23:39.575Z,87.69
2022-09-30T01:26:37.983Z,87.71
2022-09-30T01:29:43.306Z,88.00
2022-09-30T01:32:20.033Z,88.25
2022-09-30T01:34:56.944Z,88.04
2022-09-30T01:37:29.212Z,88.41
2022-09-30T01:40:07.358Z,88.35
2022-09-30T01:42:44.310Z,88.50
2022-09-30T01:45:17.393Z,88.66
2022-09-30T01:47:51.939Z,88.76
2022-09-30T01:50:24.728Z,88.59
2022-09-30T01:53:02.761Z,88.58
2022-09-30T01:55:35.609Z,88.58
2022-09-30T01:58:10.590Z,88.33
2022-09-30T02:00:42.643Z,88.14
2022-09-30T02:03:16.653Z,88.75
2022-09-30T02:05:51.076Z,88.68
2022-09-30T02:08:22.657Z,89.23
2022-09-30T02:10:56.326Z,89.48
2022-09-30T02:13:30.977Z,89.05
2022-09-30T02:16:12.695Z,88.80
2022-09-30T02:18:46.034Z,88.79
2022-09-30T02:21:18.396Z,89.07
2022-09-30T02:23:50.426Z,88.92
2022-09-30T02:26:23.021Z,89.12
2022-09-30T02:28:55.255Z,89.02
2022-09-30T02:31:25.931Z,89.24
2022-09-30T02:33:59.654Z,89.23
2022-09-30T02:36:33.010Z,89.25
2022-09-30T02:39:04.469Z,89.26
2022-09-30T02:41:38.511Z,88.83
2022-09-30T02:44:07.045Z,89.34
2022-09-30T02:46:44.572Z,88.98
2022-09-30T02:49:22.269Z,89.43
2022-09-30T02:52:07.290Z,89.32
2022-09-30T02:54:43.639Z,89.11
2022-09-30T02:57:20.202Z,89.13
2022-09-30T02:59:51.516Z,88.82
2022-09-30T03:02:20.408Z,89.31
2022-09-30T03:04:52.012Z,88.76
2022-09-30T03:07:19.901Z,88.82
2022-09-30T03:09:48.435Z,88.62
2022-09-30T03:12:33.767Z,88.25
2022-09-30T03:15:16.285Z,88.31
2022-09-30T03:17:59.349Z,88.44
2022-09-30T03:20:38.794Z,88.54
2022-09-30T03:23:27.579Z,88.63
2022-09-30T03:26:03.054Z,88.74
2022-09-30T03:28:36.669Z,88.63
2022-09-30T03:31:12.995Z,88.88
2022-09-30T03:33:50.193Z,88.64
2022-09-30T03:36:28.459Z,88.84
2022-09-30T03:39:05.975Z,88.54
2022-09-30T03:41:40.791Z,88.52
2022-09-30T03:44:13.138Z,88.81
2022-09-30T03:46:46.539Z,88.85
2022-09-30T03:49:20.137Z,89.05
2022-09-30T03:51:51.020Z,88.99
2022-09-30T03:54:19.396Z,88.45
2022-09-30T03:56:47.970Z,88.67
2022-09-30T03:59:24.006Z,88.77
2022-09-30T04:01:52.460Z,88.75
2022-09-30T04:04:20.389Z,88.51
2022-09-30T04:06:50.087Z,88.36
2022-09-30T04:09:17.832Z,88.44
2022-09-30T04:11:46.298Z,88.60
2022-09-30T04:14:14.127Z,89.12
2022-09-30T04:16:43.347Z,88.68
2022-09-30T04:19:11.141Z,88.57
2022-09-30T04:21:39.295Z,88.98
2022-09-30T04:24:09.074Z,88.42
2022-09-30T04:26:37.211Z,88.58
2022-09-30T04:29:05.104Z,88.59
2022-09-30T04:31:33.553Z,88.82
2022-09-30T04:34:01.414Z,88.90
2022-09-30T04:36:29.078Z,89.16
2022-09-30T04:38:56.765Z,88.92
2022-09-30T04:41:26.746Z,88.86
2022-09-30T04:43:55.137Z,88.95
2022-09-30T04:46:23.017Z,89.39
2022-09-30T04:48:51.191Z,89.18
2022-09-30T04:51:21.067Z,89.37
2022-09-30T04:53:50.387Z,89.50
2022-09-30T04:56:18.844Z,89.43
2022-09-30T04:58:47.848Z,89.50
2022-09-30T05:01:17.917Z,89.56
2022-09-30T05:03:45.856Z,89.85
2022-09-30T05:06:14.523Z,89.69
2022-09-30T05:08:45.971Z,90.01
2022-09-30T05:11:18.433Z,89.86
2022-09-30T05:13:46.560Z,90.07
2022-09-30T05:16:17.271Z,89.76
2022-09-30T05:18:47.014Z,89.61
2022-09-30T05:21:17.437Z,89.93
2022-09-30T05:23:45.506Z,89.65
2022-09-30T05:26:13.211Z,89.79
2022-09-30T05:28:40.985Z,89.08
2022-09-30T05:31:08.944Z,89.48
2022-09-30T05:33:38.114Z,89.37
2022-09-30T05:36:08.941Z,89.32
2022-09-30T05:38:37.073Z,88.74
2022-09-30T05:41:11.560Z,88.72
2022-09-30T05:43:40.632Z,88.89
2022-09-30T05:46:09.271Z,89.11
2022-09-30T05:48:38.286Z,89.11
2022-09-30T05:51:07.498Z,89.25
2022-09-30T05:53:38.565Z,88.96
2022-09-30T05:56:07.269Z,89.08
2022-09-30T05:58:35.531Z,89.26
2022-09-30T06:01:13.230Z,89.17
2022-09-30T06:03:43.626Z,89.32
2022-09-30T06:06:11.433Z,89.36
2022-09-30T06:08:39.115Z,89.39
2022-09-30T06:11:12.722Z,89.16
2022-09-30T06:13:41.476Z,89.65
2022-09-30T06:16:11.185Z,89.56
2022-09-30T06:18:41.088Z,89.59
2022-09-30T06:24:01.945Z,89.59
2022-09-30T06:26:30.086Z,89.51
2022-09-30T06:28:57.784Z,89.28
2022-09-30T06:31:25.516Z,88.71
2022-09-30T06:33:53.844Z,88.90
2022-09-30T06:36:23.326Z,88.71
2022-09-30T06:38:52.921Z,88.27
2022-09-30T06:41:21.594Z,87.55
2022-09-30T06:44:00.362Z,87.38
2022-09-30T06:46:31.166Z,87.56
2022-09-30T06:49:11.906Z,87.72
2022-09-30T06:51:43.072Z,87.42
2022-09-30T06:54:10.922Z,87.42
2022-09-30T06:56:39.528Z,87.44
2022-09-30T06:59:07.231Z,87.69
2022-09-30T07:01:34.973Z,87.26
2022-09-30T07:04:08.145Z,87.45
2022-09-30T07:06:36.386Z,86.98
2022-09-30T07:09:05.683Z,87.01
2022-09-30T07:11:33.365Z,86.62
2022-09-30T07:14:01.610Z,86.91
2022-09-30T07:16:31.493Z,86.40
2022-09-30T07:18:59.856Z,86.23
2022-09-30T07:21:27.928Z,85.85
2022-09-30T07:23:56.678Z,86.02
2022-09-30T07:26:27.203Z,86.20
2022-09-30T07:28:54.892Z,86.38
2022-09-30T07:31:32.908Z,86.60
2022-09-30T07:34:03.375Z,86.76
2022-09-30T07:36:33.594Z,86.59
2022-09-30T07:39:06.812Z,86.12
2022-09-30T07:41:39.264Z,85.91
2022-09-30T07:44:12.173Z,86.18
2022-09-30T07:46:40.445Z,85.63
2022-09-30T07:49:12.897Z,85.01
2022-09-30T07:51:44.109Z,84.77
2022-09-30T07:54:15.321Z,84.88
2022-09-30T07:57:08.715Z,84.45
2022-09-30T07:59:34.665Z,84.48
2022-09-30T08:02:02.892Z,84.34
2022-09-30T08:04:30.971Z,85.12
2022-09-30T08:07:00.932Z,85.00
2022-09-30T08:09:30.928Z,85.12
2022-09-30T08:12:00.542Z,83.91
2022-09-30T08:14:29.173Z,84.09
2022-09-30T08:16:58.686Z,82.35
2022-09-30T08:19:27.573Z,82.48
2022-09-30T08:21:55.908Z,82.66
2022-09-30T08:24:26.424Z,83.14
2022-09-30T08:26:55.367Z,83.38
2022-09-30T08:29:50.094Z,82.60
2022-09-30T08:32:12.786Z,82.28
2022-09-30T08:34:40.514Z,82.40
2022-09-30T08:37:10.621Z,82.94
2022-09-30T08:39:38.448Z,82.25
2022-09-30T08:42:41.430Z,82.56
2022-09-30T08:45:23.451Z,82.66
2022-09-30T08:48:02.167Z,80.94
2022-09-30T08:50:35.649Z,81.00
2022-09-30T08:53:10.217Z,81.54
2022-09-30T08:55:42.006Z,81.49
2022-09-30T08:58:20.518Z,81.90
2022-09-30T09:00:51.233Z,81.90
2022-09-30T09:03:20.817Z,81.53
2022-09-30T09:05:54.196Z,81.13
2022-09-30T09:08:30.435Z,81.20
2022-09-30T09:11:08.959Z,80.73
2022-09-30T09:13:48.331Z,81.12
2022-09-30T09:16:26.676Z,80.80
2022-09-30T09:19:04.730Z,81.16
2022-09-30T09:21:44.969Z,79.56
2022-09-30T09:24:17.199Z,79.61
2022-09-30T09:26:45.104Z,80.06
2022-09-30T09:29:27.061Z,79.84
2022-09-30T09:31:57.188Z,79.43
2022-09-30T09:34:27.039Z,79.09
2022-09-30T09:37:07.382Z,79.02
2022-09-30T09:40:07.707Z,78.93
2022-09-30T09:42:59.118Z,78.47
2022-09-30T09:45:33.407Z,78.42
2022-09-30T09:48:03.026Z,78.48
2022-09-30T09:50:41.932Z,77.93
2022-09-30T09:53:24.826Z,77.86
2022-09-30T09:55:57.089Z,78.47
2022-09-30T09:58:26.335Z,77.93
2022-09-30T10:01:13.800Z,78.12
2022-09-30T10:03:43.621Z,77.43
2022-09-30T10:06:12.821Z,75.78
2022-09-30T10:08:53.422Z,75.41
2022-09-30T10:11:23.931Z,75.79
2022-09-30T10:13:56.442Z,75.44
2022-09-30T10:16:29.234Z,75.16
2022-09-30T10:18:59.314Z,74.74
2022-09-30T10:21:28.868Z,73.56
2022-09-30T10:23:57.653Z,73.84
2022-09-30T10:29:04.013Z,73.59
2022-09-30T10:31:33.873Z,74.24
2022-09-30T10:34:12.695Z,73.20
2022-09-30T10:36:43.323Z,73.44
2022-09-30T10:39:23.533Z,73.75
2022-09-30T10:41:52.630Z,73.93
2022-09-30T10:44:24.589Z,73.53
2022-09-30T10:46:54.311Z,72.57
2022-09-30T10:49:29.659Z,71.83
2022-09-30T10:51:58.354Z,71.39
2022-09-30T10:54:43.957Z,71.79
2022-09-30T10:57:16.757Z,71.27
2022-09-30T10:59:46.385Z,70.68
2022-09-30T11:02:31.848Z,71.77
2022-09-30T11:05:13.439Z,71.17
2022-09-30T11:07:47.120Z,70.44
2022-09-30T11:10:28.716Z,69.10
2022-09-30T11:13:02.828Z,69.21
2022-09-30T11:15:37.341Z,69.36
2022-09-30T11:18:08.923Z,69.26
2022-09-30T11:20:44.859Z,69.45
2022-09-30T11:23:21.830Z,66.83
2022-09-30T11:26:01.307Z,67.20
2022-09-30T11:28:54.068Z,66.18
2022-09-30T11:31:31.496Z,66.79
2022-09-30T11:34:12.747Z,67.32
2022-09-30T11:36:50.780Z,66.95
2022-09-30T11:39:37.382Z,68.03
2022-09-30T11:42:13.954Z,67.21
2022-09-30T11:44:45.736Z,67.12
2022-09-30T11:47:45.995Z,65.48
2022-09-30T11:50:32.158Z,64.30
2022-09-30T11:53:14.200Z,64.97
2022-09-30T11:55:57.501Z,65.29
2022-09-30T11:58:41.116Z,65.37
2022-09-30T12:01:21.492Z,65.96
2022-09-30T12:03:58.042Z,64.90
2022-09-30T12:06:33.408Z,63.68
2022-09-30T12:09:10.444Z,63.34
2022-09-30T12:11:46.435Z,62.68
2022-09-30T12:14:20.890Z,62.50
2022-09-30T12:16:51.337Z,62.82
2022-09-30T12:19:25.924Z,62.68
2022-09-30T12:22:00.013Z,63.60
2022-09-30T12:24:35.745Z,62.47
2022-09-30T12:27:04.330Z,63.42
2022-09-30T12:29:56.015Z,63.30
2022-09-30T12:32:44.125Z,63.52
2022-09-30T12:35:37.159Z,64.24
2022-09-30T12:38:21.227Z,61.23
2022-09-30T12:41:08.523Z,61.80
2022-09-30T12:44:05.998Z,61.92
2022-09-30T12:46:50.641Z,62.80
2022-09-30T12:49:23.646Z,63.29
2022-09-30T12:51:55.583Z,62.34
2022-09-30T12:54:28.317Z,61.22
2022-09-30T12:57:00.556Z,61.73
2022-09-30T12:59:33.500Z,60.92
2022-09-30T13:02:03.683Z,60.94
2022-09-30T13:04:37.002Z,61.28
2022-09-30T13:07:23.295Z,62.42
2022-09-30T13:09:59.289Z,62.11
2022-09-30T13:12:41.424Z,62.52
2022-09-30T13:15:43.853Z,62.52
2022-09-30T13:18:47.915Z,61.82
2022-09-30T13:21:21.780Z,60.51
2022-09-30T13:23:50.735Z,62.30
2022-09-30T13:26:43.076Z,63.16
2022-09-30T13:29:39.207Z,61.88
2022-09-30T13:32:10.531Z,62.09
2022-09-30T13:34:58.113Z,61.71
2022-09-30T13:37:38.830Z,60.52
2022-09-30T13:40:16.799Z,61.93
2022-09-30T13:42:52.862Z,62.93
2022-09-30T13:45:31.173Z,63.06
2022-09-30T13:48:11.121Z,63.48
2022-09-30T13:50:46.504Z,63.54
2022-09-30T13:53:20.603Z,63.64
2022-09-30T13:55:53.644Z,62.69
2022-09-30T13:58:39.165Z,62.28
2022-09-30T14:01:21.276Z,63.05
2022-09-30T14:04:15.050Z,62.11
2022-09-30T14:06:53.338Z,61.80
2022-09-30T14:09:38.765Z,61.65
2022-09-30T14:12:16.350Z,63.07
2022-09-30T14:15:18.158Z,64.47
2022-09-30T14:18:22.339Z,65.64
2022-09-30T14:21:04.854Z,65.23
2022-09-30T14:23:32.625Z,64.33
2022-09-30T14:26:11.533Z,65.50
2022-09-30T14:28:46.787Z,65.84
2022-09-30T14:31:16.209Z,65.92
2022-09-30T14:33:52.014Z,66.90
2022-09-30T14:36:22.982Z,66.84
2022-09-30T14:38:54.516Z,67.01
2022-09-30T14:41:24.501Z,67.38
2022-09-30T14:43:55.353Z,67.89
2022-09-30T14:46:35.613Z,67.05
2022-09-30T14:49:09.544Z,66.95
2022-09-30T14:51:43.203Z,67.70
2022-09-30T14:54:19.466Z,68.79
2022-09-30T14:56:48.160Z,68.96
2022-09-30T14:59:19.592Z,68.76
2022-09-30T15:01:50.084Z,69.33
2022-09-30T15:04:23.961Z,68.85
2022-09-30T15:06:53.018Z,69.16
2022-09-30T15:09:28.766Z,69.26
2022-09-30T15:11:58.996Z,69.20
2022-09-30T15:14:27.066Z,68.85
2022-09-30T15:16:57.009Z,68.55
2022-09-30T15:19:28.104Z,69.12
2022-09-30T15:21:58.650Z,70.16
2022-09-30T15:24:32.124Z,71.00
2022-09-30T15:27:01.708Z,71.54
2022-09-30T15:29:29.488Z,71.72
2022-09-30T15:32:01.959Z,71.69
2022-09-30T15:34:32.519Z,69.94
2022-09-30T15:37:06.489Z,70.31
2022-09-30T15:39:54.029Z,71.20
2022-09-30T15:42:32.161Z,71.32
2022-09-30T15:44:59.890Z,72.22
2022-09-30T15:47:29.255Z,73.18
2022-09-30T15:49:58.313Z,73.35
2022-09-30T15:52:37.006Z,73.55
2022-09-30T15:55:36.501Z,74.05
2022-09-30T15:58:05.116Z,74.50
2022-09-30T16:00:36.405Z,74.62
2022-09-30T16:03:28.824Z,76.13
2022-09-30T16:06:08.380Z,75.06
2022-09-30T16:08:43.380Z,74.89
2022-09-30T16:11:20.464Z,74.86
2022-09-30T16:13:49.245Z,74.42
2022-09-30T16:16:22.161Z,74.23
2022-09-30T16:18:52.208Z,73.68
2022-09-30T16:21:43.799Z,74.67
2022-09-30T16:24:47.084Z,75.20
2022-09-30T16:27:25.975Z,74.86
2022-09-30T16:29:53.751Z,75.22
2022-09-30T16:32:21.607Z,74.99
2022-09-30T16:34:49.706Z,73.60
2022-09-30T16:37:21.440Z,73.38
2022-09-30T16:39:50.215Z,72.93
2022-09-30T16:42:19.314Z,73.11
2022-09-30T16:44:47.072Z,73.80
2022-09-30T16:47:16.676Z,73.33
2022-09-30T16:49:46.437Z,73.61
2022-09-30T16:52:14.951Z,73.44
2022-09-30T16:54:44.212Z,74.22
2022-09-30T16:57:14.650Z,74.61
2022-09-30T16:59:43.467Z,75.10
2022-09-30T17:02:15.713Z,75.42
2022-09-30T17:04:45.363Z,75.59
2022-09-30T17:07:14.908Z,76.13
2022-09-30T17:09:45.345Z,76.27
2022-09-30T17:12:13.217Z,76.50
2022-09-30T17:14:43.678Z,76.72
2022-09-30T17:17:13.751Z,77.13
2022-09-30T17:19:42.018Z,77.07
2022-09-30T17:22:09.698Z,77.15
2022-09-30T17:24:37.344Z,77.21
2022-09-30T17:27:07.753Z,77.57
2022-09-30T17:29:41.932Z,77.84
2022-09-30T17:32:10.408Z,78.02
2022-09-30T17:34:38.114Z,78.60
2022-09-30T17:39:39.234Z,78.65
2022-09-30T17:42:30.289Z,78.66
2022-09-30T17:44:58.445Z,78.53
2022-09-30T17:47:26.721Z,78.60
2022-09-30T17:49:55.058Z,79.08
2022-09-30T17:52:23.731Z,79.27
2022-09-30T17:54:52.702Z,79.15
2022-09-30T17:57:22.175Z,79.63
2022-09-30T17:59:50.142Z,79.72
2022-09-30T18:02:18.084Z,79.98
2022-09-30T18:04:46.515Z,80.27
2022-09-30T18:07:14.220Z,80.46
2022-09-30T18:09:42.325Z,80.71
2022-09-30T18:12:09.998Z,80.83
2022-09-30T18:14:39.813Z,80.80
2022-09-30T18:17:07.697Z,80.91
2022-09-30T18:19:38.322Z,81.27
2022-09-30T18:22:06.000Z,81.72
2022-09-30T18:24:48.349Z,82.13
2022-09-30T18:27:16.142Z,82.51
2022-09-30T18:29:45.519Z,82.55
2022-09-30T18:32:13.371Z,82.84
2022-09-30T18:34:41.877Z,82.83
2022-09-30T18:37:10.315Z,83.36
2022-09-30T18:39:38.409Z,83.18
2022-09-30T18:42:06.491Z,83.01
2022-09-30T18:44:37.799Z,82.94
2022-09-30T18:47:07.475Z,82.67
2022-09-30T18:49:35.448Z,82.83
2022-09-30T18:52:03.216Z,83.88
2022-09-30T18:54:31.088Z,83.87
2022-09-30T18:57:00.011Z,84.22
2022-09-30T18:59:27.738Z,84.09
2022-09-30T19:01:58.221Z,83.88
2022-09-30T19:04:27.746Z,83.65
2022-09-30T19:06:55.402Z,83.76
2022-09-30T19:09:26.361Z,84.01
2022-09-30T19:11:55.572Z,84.65
2022-09-30T19:14:24.292Z,84.61
2022-09-30T19:16:52.278Z,84.75
2022-09-30T19:19:22.775Z,84.82
2022-09-30T19:21:52.096Z,84.85
2022-09-30T19:24:24.049Z,84.68
2022-09-30T19:26:54.405Z,85.09
2022-09-30T19:29:23.833Z,84.93
2022-09-30T19:31:51.684Z,85.11
2022-09-30T19:34:31.002Z,85.32
2022-09-30T19:37:01.038Z,85.30
2022-09-30T19:39:41.009Z,85.29
2022-09-30T19:42:15.018Z,85.18
2022-09-30T19:44:42.917Z,85.28
2022-09-30T19:47:11.092Z,85.53
2022-09-30T19:49:38.854Z,85.70
2022-09-30T19:52:18.523Z,85.40
2022-09-30T19:54:48.347Z,85.40
2022-09-30T19:57:16.060Z,85.76
2022-09-30T19:59:44.026Z,85.51
2022-09-30T20:02:12.759Z,85.72
2022-09-30T20:04:44.039Z,85.56
2022-09-30T20:07:16.105Z,85.57
2022-09-30T20:09:43.820Z,84.80
2022-09-30T20:12:11.762Z,83.61
2022-09-30T20:14:57.549Z,84.28
2022-09-30T20:17:25.223Z,84.10
2022-09-30T20:20:07.095Z,83.95
2022-09-30T20:22:36.153Z,84.20
2022-09-30T20:25:04.460Z,84.38
2022-09-30T20:27:32.896Z,85.35
2022-09-30T20:30:00.739Z,86.98
2022-09-30T20:32:30.692Z,88.40
2022-09-30T20:34:59.041Z,89.14
2022-09-30T20:37:26.762Z,89.39
2022-09-30T20:39:55.830Z,88.97
2022-09-30T20:42:25.519Z,88.77
2022-09-30T20:44:53.173Z,88.67
2022-09-30T20:47:20.829Z,88.25
2022-09-30T20:49:48.495Z,88.45
2022-09-30T20:52:16.198Z,89.03
2022-09-30T20:54:43.843Z,88.66
2022-09-30T20:57:13.511Z,88.49
2022-09-30T20:59:41.146Z,88.40
2022-09-30T21:02:10.963Z,88.62
2022-09-30T21:04:38.755Z,88.31
2022-09-30T21:07:07.194Z,88.09
2022-09-30T21:09:35.643Z,88.24
2022-09-30T21:12:03.430Z,87.84
2022-09-30T21:14:32.423Z,87.86
2022-09-30T21:17:00.435Z,87.81
2022-09-30T21:19:28.541Z,88.26
2022-09-30T21:21:56.803Z,88.47
2022-09-30T21:24:25.833Z,88.10
2022-09-30T21:26:54.653Z,88.51
2022-09-30T21:29:23.718Z,88.04
2022-09-30T21:31:52.787Z,88.06
2022-09-30T21:34:20.477Z,88.17
2022-09-30T21:36:49.194Z,88.33
2022-09-30T21:39:16.851Z,88.01
2022-09-30T21:41:44.702Z,88.10
2022-09-30T21:44:12.378Z,88.30
2022-09-30T21:46:44.745Z,88.03
2022-09-30T21:49:18.986Z,88.01
2022-09-30T21:51:46.707Z,87.58
2022-09-30T21:54:14.773Z,87.47
2022-09-30T21:56:43.638Z,87.07
2022-09-30T21:59:11.972Z,86.59
2022-09-30T22:01:39.775Z,86.54
2022-09-30T22:04:08.167Z,86.18
2022-09-30T22:06:37.225Z,86.16
2022-09-30T22:09:05.216Z,86.27
2022-09-30T22:11:33.398Z,85.90
2022-09-30T22:14:01.653Z,86.16
2022-09-30T22:16:34.696Z,86.04
2022-09-30T22:19:04.721Z,86.12
2022-09-30T22:21:34.513Z,86.91
2022-09-30T22:24:06.233Z,86.36
2022-09-30T22:26:34.220Z,86.74
2022-09-30T22:29:05.321Z,87.21
2022-09-30T22:31:34.226Z,87.52
2022-09-30T22:34:21.314Z,87.44
2022-09-30T22:37:06.565Z,87.74
2022-09-30T22:39:36.033Z,86.52
2022-09-30T22:42:04.765Z,86.18
2022-09-30T22:44:34.577Z,86.28
2022-09-30T22:47:02.840Z,86.51
2022-09-30T22:49:32.019Z,87.48
2022-09-30T22:52:00.955Z,87.85
2022-09-30T22:54:29.237Z,87.77
2022-09-30T22:56:59.570Z,88.07
2022-09-30T22:59:28.366Z,88.05
2022-09-30T23:01:56.416Z,88.02
2022-09-30T23:04:26.684Z,87.91
2022-09-30T23:06:56.334Z,88.37
2022-09-30T23:09:24.133Z,88.62
2022-09-30T23:11:53.595Z,88.90
2022-09-30T23:14:23.020Z,88.76
2022-09-30T23:16:51.425Z,88.30
2022-09-30T23:19:20.109Z,88.51
2022-09-30T23:21:48.339Z,88.54
2022-09-30T23:24:16.712Z,87.95
2022-09-30T23:26:44.461Z,87.74
2022-09-30T23:29:14.438Z,87.86
2022-09-30T23:32:23.022Z,88.21
2022-09-30T23:34:52.346Z,88.95
2022-09-30T23:37:20.053Z,88.70
2022-09-30T23:39:48.319Z,88.51
2022-09-30T23:42:16.386Z,88.59
2022-09-30T23:44:44.318Z,88.67
2022-09-30T23:47:21.522Z,88.28
2022-09-30T23:49:50.419Z,88.67
2022-09-30T23:52:19.719Z,89.05
2022-09-30T23:54:47.814Z,88.99
2022-09-30T23:57:15.528Z,89.30
2022-09-30T23:59:43.198Z,88.98
